createdAt,value
2023-04-21T15:48:32.832Z,9.95
2023-04-21T15:51:38.424Z,12.80
2023-04-21T15:54:47.916Z,4.88
2023-04-21T15:57:53.566Z,2.88
2023-04-21T16:00:58.785Z,3.35
2023-04-21T16:04:14.962Z,2.42
2023-04-21T16:07:20.709Z,1.70
2023-04-21T16:10:27.002Z,3.40
2023-04-21T16:13:31.984Z,5.25
2023-04-21T16:16:40.929Z,2.90
2023-04-21T16:19:47.240Z,6.22
2023-04-21T16:23:01.349Z,2.13
2023-04-21T16:26:27.732Z,2.47
2023-04-21T16:29:33.388Z,3.33
2023-04-21T16:32:38.031Z,1.73
2023-04-21T16:35:45.474Z,2.33
2023-04-21T16:38:54.893Z,17.42
2023-04-21T16:42:04.010Z,3.20
2023-04-21T16:45:10.297Z,1.85
2023-04-21T16:48:15.984Z,5.28
2023-04-21T16:51:22.165Z,2.42
2023-04-21T16:54:28.523Z,4.80
2023-04-21T16:57:34.579Z,4.22
2023-04-21T17:00:39.651Z,3.90
2023-04-21T17:03:46.492Z,9.77
2023-04-21T17:06:53.836Z,4.10
2023-04-21T17:09:58.457Z,14.82
2023-04-21T17:13:04.960Z,11.30
2023-04-21T17:16:10.613Z,5.82
2023-04-21T17:19:17.915Z,7.55
2023-04-21T17:22:25.904Z,7.82
2023-04-21T17:25:32.685Z,18.63
2023-04-21T17:28:37.542Z,10.32
2023-04-21T17:31:42.831Z,7.50
2023-04-21T17:34:47.457Z,4.45
2023-04-21T17:37:53.947Z,4.10
2023-04-21T17:40:58.527Z,4.85
2023-04-21T17:44:09.394Z,9.47
2023-04-21T17:47:14.548Z,6.43
2023-04-21T17:50:19.783Z,8.25
2023-04-21T17:53:25.738Z,6.55
2023-04-21T17:56:30.659Z,14.30
2023-04-21T17:59:35.240Z,15.05
2023-04-21T18:02:40.411Z,16.35
2023-04-21T18:05:44.797Z,13.63
2023-04-21T18:08:50.912Z,9.52
2023-04-21T18:11:55.255Z,11.48
2023-04-21T18:15:00.684Z,26.17
2023-04-21T18:18:05.310Z,35.33
2023-04-21T18:21:11.358Z,34.25
2023-04-21T18:24:18.060Z,48.45
2023-04-21T18:27:25.310Z,67.75
2023-04-21T18:34:23.765Z,32.03
2023-04-21T18:37:28.333Z,37.35
2023-04-21T18:40:34.377Z,52.13
2023-04-21T18:43:38.906Z,66.63
2023-04-21T18:47:15.817Z,50.60
2023-04-21T18:50:48.811Z,47.53
2023-04-21T18:53:53.377Z,43.92
2023-04-21T18:57:02.735Z,36.22
2023-04-21T19:00:10.343Z,26.00
2023-04-21T19:03:14.771Z,28.13
2023-04-21T19:06:25.452Z,28.10
2023-04-21T19:09:29.765Z,21.45
2023-04-21T19:12:35.775Z,19.48
2023-04-21T19:15:40.169Z,17.50
2023-04-21T19:18:45.564Z,16.48
2023-04-21T19:21:54.950Z,16.83
2023-04-21T19:25:01.266Z,34.15
2023-04-21T19:28:12.045Z,26.65
2023-04-21T19:31:21.935Z,18.35
2023-04-21T19:34:27.173Z,22.35
2023-04-21T19:37:35.159Z,20.73
2023-04-21T19:40:45.279Z,15.05
2023-04-21T19:43:52.344Z,20.75
2023-04-21T19:46:57.282Z,17.40
2023-04-21T19:50:02.205Z,33.50
2023-04-21T19:53:06.902Z,35.60
2023-04-21T19:56:12.117Z,30.90
2023-04-21T19:59:18.443Z,18.50
2023-04-21T20:02:23.179Z,10.35
2023-04-21T20:05:28.428Z,10.57
2023-04-21T20:11:43.597Z,5.88
2023-04-21T20:14:49.903Z,3.90
2023-04-21T20:17:54.364Z,9.27
2023-04-21T20:20:58.964Z,11.63
2023-04-21T20:24:08.855Z,7.10
2023-04-21T20:27:14.122Z,7.53
2023-04-21T20:30:24.899Z,7.18
2023-04-21T20:33:30.504Z,13.90
2023-04-21T20:36:37.321Z,14.10
2023-04-21T20:39:43.389Z,14.75
2023-04-21T20:42:48.784Z,17.50
2023-04-21T20:45:55.619Z,12.13
2023-04-21T20:48:59.660Z,9.05
2023-04-21T20:52:04.559Z,15.80
2023-04-21T20:55:09.635Z,11.05
